Time;durP1;ratioP1;P1;durP2;ratioP2;P2;SDS_P1;SDS_P2;PMS_P1;PMS_P2;Temp;Humidity;BMP_temperature;BMP_pressure;BME280_temperature;BME280_humidity;BME280_pressure;Samples;Min_cycle;Max_cycle;Signal;HPM_P1;HPM_P2
2022/10/27 00:01:49;;;;;;;11.75;6.07;;;14.30;99.90;;;;;;5046721;28;20055;-76
2022/10/27 00:04:15;;;;;;;11.60;5.90;;;14.30;99.90;;;;;;5062480;28;20036;-77
2022/10/27 00:06:40;;;;;;;12.55;6.32;;;14.30;99.90;;;;;;5045854;28;20689;-77
2022/10/27 00:09:06;;;;;;;15.48;6.18;;;14.30;99.90;;;;;;5048013;28;20087;-79
2022/10/27 00:11:32;;;;;;;11.80;6.00;;;14.30;99.90;;;;;;5064591;28;20084;-77
2022/10/27 00:13:57;;;;;;;11.85;6.38;;;14.30;99.90;;;;;;5042943;28;20072;-76
2022/10/27 00:16:23;;;;;;;13.27;6.10;;;14.20;99.90;;;;;;5048993;28;20055;-79
2022/10/27 00:18:49;;;;;;;11.02;6.68;;;14.20;99.90;;;;;;5065736;28;20518;-78
2022/10/27 00:21:17;;;;;;;17.70;9.85;;;14.20;99.90;;;;;;5048452;28;20932;-77
2022/10/27 00:23:43;;;;;;;19.58;9.93;;;14.20;99.90;;;;;;5047054;28;20036;-77
2022/10/27 00:26:14;;;;;;;18.52;10.88;;;14.20;99.90;;;;;;5068471;28;20036;-78
2022/10/27 00:28:40;;;;;;;21.08;12.18;;;14.20;99.90;;;;;;5047871;28;20071;-76
2022/10/27 00:31:10;;;;;;;20.92;12.18;;;14.20;99.90;;;;;;5045336;28;20055;-77
2022/10/27 00:33:36;;;;;;;15.57;10.48;;;14.20;99.90;;;;;;5067057;28;20717;-77
2022/10/27 00:36:04;;;;;;;18.48;10.98;;;14.20;99.90;;;;;;5062539;28;20124;-77
2022/10/27 00:38:29;;;;;;;20.40;10.65;;;14.20;99.90;;;;;;5048489;28;20075;-77
2022/10/27 00:40:55;;;;;;;16.77;9.18;;;14.20;99.90;;;;;;5063778;28;20555;-77
2022/10/27 00:43:33;;;;;;;13.10;7.72;;;14.10;99.90;;;;;;5047955;28;20140;-78
2022/10/27 00:46:19;;;;;;;10.63;6.95;;;14.10;99.90;;;;;;5067065;28;20106;-77
2022/10/27 00:48:46;;;;;;;12.52;7.57;;;14.10;99.90;;;;;;5039237;28;20056;-76
2022/10/27 00:51:16;;;;;;;13.95;7.88;;;14.10;99.90;;;;;;5046000;28;20052;-75
2022/10/27 00:53:42;;;;;;;11.45;7.30;;;14.20;99.90;;;;;;5056508;28;20553;-77
2022/10/27 00:56:08;;;;;;;13.32;7.70;;;14.10;99.90;;;;;;5046534;28;20055;-78
2022/10/27 00:58:34;;;;;;;14.70;7.60;;;14.10;99.90;;;;;;5043906;28;20057;-78
2022/10/27 01:01:00;;;;;;;14.75;7.88;;;14.00;99.90;;;;;;5066328;28;20045;-77
2022/10/27 01:03:26;;;;;;;15.65;8.10;;;14.00;99.90;;;;;;5055387;28;20415;-76
2022/10/27 01:05:54;;;;;;;15.10;8.23;;;13.90;99.90;;;;;;5044049;28;20048;-78
2022/10/27 01:08:22;;;;;;;;;;;13.90;99.90;;;;;;5064889;28;20036;-77
2022/10/27 01:10:47;;;;;;;14.70;7.63;;;13.90;99.90;;;;;;5049388;28;19943;-77
2022/10/27 01:13:13;;;;;;;13.82;8.00;;;13.90;99.90;;;;;;5063600;28;20856;-76
2022/10/27 01:15:59;;;;;;;16.27;7.93;;;13.90;99.90;;;;;;5062908;28;20045;-77
2022/10/27 01:18:29;;;;;;;15.57;8.23;;;13.90;99.90;;;;;;5024320;28;20049;-77
2022/10/27 01:21:15;;;;;;;14.05;7.78;;;13.90;99.90;;;;;;5023423;28;20118;-78
2022/10/27 01:24:14;;;;;;;14.13;7.63;;;13.90;99.90;;;;;;5027506;28;20049;-77
2022/10/27 01:27:04;;;;;;;12.05;7.82;;;14.00;99.90;;;;;;5026547;28;20120;-77
2022/10/27 01:29:33;;;;;;;15.32;7.90;;;14.00;99.90;;;;;;5042548;28;20064;-76
2022/10/27 01:32:10;;;;;;;10.18;7.80;;;14.00;99.90;;;;;;5044310;28;20515;-77
2022/10/27 01:34:49;;;;;;;13.27;7.80;;;14.00;99.90;;;;;;5027412;28;20088;-76
2022/10/27 01:37:29;;;;;;;16.30;8.02;;;14.00;99.90;;;;;;5043788;28;20055;-78
2022/10/27 01:40:27;;;;;;;14.95;8.05;;;14.00;99.90;;;;;;5045183;28;20541;-76
2022/10/27 01:43:06;;;;;;;15.13;8.77;;;14.10;99.90;;;;;;5008122;28;20064;-76
2022/10/27 01:45:36;;;;;;;13.52;7.78;;;14.00;99.90;;;;;;5046590;28;20045;-78
2022/10/27 01:48:04;;;;;;;12.40;8.07;;;14.00;99.90;;;;;;5043942;28;20041;-77
2022/10/27 01:50:34;;;;;;;15.85;7.28;;;14.10;99.90;;;;;;5043484;28;20489;-77
2022/10/27 01:53:00;;;;;;;11.00;7.88;;;14.10;99.90;;;;;;5044858;28;20125;-78
2022/10/27 01:55:25;;;;;;;11.85;7.53;;;14.00;99.90;;;;;;5044806;28;20136;-76
2022/10/27 01:58:06;;;;;;;15.70;8.20;;;14.10;99.90;;;;;;5025640;28;20053;-77
2022/10/27 02:00:38;;;;;;;15.05;8.15;;;14.10;99.90;;;;;;5042910;28;20123;-78
2022/10/27 02:03:14;;;;;;;12.15;7.60;;;14.00;99.90;;;;;;5027076;28;20103;-77
2022/10/27 02:05:47;;;;;;;13.13;8.32;;;14.00;99.90;;;;;;5023989;28;20128;-77
2022/10/27 02:08:23;;;;;;;12.65;8.20;;;14.00;99.90;;;;;;5026946;28;20045;-77
2022/10/27 02:11:05;;;;;;;14.02;8.32;;;14.00;99.90;;;;;;5048987;28;20240;-77
2022/10/27 02:13:33;;;;;;;11.63;7.88;;;14.00;99.90;;;;;;5025969;28;20136;-77
2022/10/27 02:16:23;;;;;;;13.55;8.38;;;14.00;99.90;;;;;;5051375;28;20048;-77
2022/10/27 02:18:54;;;;;;;14.52;8.88;;;14.00;99.90;;;;;;5067016;28;20125;-76
2022/10/27 02:21:22;;;;;;;16.10;8.90;;;14.00;99.90;;;;;;5071293;28;20372;-76
2022/10/27 02:23:47;;;;;;;11.43;8.50;;;14.00;99.90;;;;;;5062848;28;20048;-78
2022/10/27 02:26:38;;;;;;;13.30;8.52;;;14.00;99.90;;;;;;5069574;28;20045;-77
2022/10/27 02:29:12;;;;;;;12.52;8.60;;;14.00;99.90;;;;;;5046312;28;20053;-77
2022/10/27 02:31:42;;;;;;;11.95;8.82;;;14.00;99.90;;;;;;5067459;28;20048;-78
2022/10/27 02:34:09;;;;;;;13.30;8.90;;;14.00;99.90;;;;;;5038076;28;20056;-77
2022/10/27 02:36:35;;;;;;;;;;;14.00;99.90;;;;;;5049821;28;20101;-78
2022/10/27 02:39:01;;;;;;;13.43;8.77;;;14.00;99.90;;;;;;5068765;28;20245;-77
2022/10/27 02:41:27;;;;;;;13.55;8.80;;;14.00;99.90;;;;;;5047620;28;20446;-77
2022/10/27 02:43:53;;;;;;;12.50;9.15;;;14.00;99.90;;;;;;5065957;28;20045;-77
2022/10/27 02:46:18;;;;;;;14.80;9.35;;;14.00;99.90;;;;;;5065711;28;20044;-78
2022/10/27 02:48:44;;;;;;;13.18;8.43;;;13.90;99.90;;;;;;5049438;28;20041;-78
2022/10/27 02:51:10;;;;;;;12.90;8.45;;;13.90;99.90;;;;;;5067338;28;20047;-78
2022/10/27 02:53:36;;;;;;;12.77;8.57;;;13.90;99.90;;;;;;5066405;28;20123;-78
2022/10/27 02:56:02;;;;;;;12.30;8.15;;;13.80;99.90;;;;;;5069335;28;20127;-77
2022/10/27 02:58:28;;;;;;;13.70;9.65;;;13.80;99.90;;;;;;5065904;28;20041;-76
2022/10/27 03:00:55;;;;;;;12.50;8.00;;;13.80;99.90;;;;;;5041001;28;20048;-78
2022/10/27 03:03:24;;;;;;;14.40;9.03;;;13.80;99.90;;;;;;5046028;28;20048;-77
2022/10/27 03:05:49;;;;;;;16.48;8.60;;;13.70;99.90;;;;;;5066010;28;20597;-77
2022/10/27 03:08:15;;;;;;;12.15;8.43;;;13.70;99.90;;;;;;5064270;28;20048;-77
2022/10/27 03:10:42;;;;;;;12.07;8.75;;;13.70;99.90;;;;;;5048494;28;20079;-78
2022/10/27 03:13:08;;;;;;;12.23;9.05;;;13.60;99.90;;;;;;5066521;28;20052;-76
2022/10/27 03:15:34;;;;;;;12.45;9.05;;;13.60;99.90;;;;;;5067312;28;20041;-78
2022/10/27 03:17:59;;;;;;;12.70;8.35;;;13.60;99.90;;;;;;5066098;28;20056;-77
2022/10/27 03:20:25;;;;;;;16.05;9.25;;;13.50;99.90;;;;;;5063472;28;20056;-77
2022/10/27 03:22:50;;;;;;;10.50;8.73;;;13.50;99.90;;;;;;5048182;28;20052;-77
2022/10/27 03:25:16;;;;;;;12.20;8.90;;;13.60;99.90;;;;;;5061069;28;20047;-77
2022/10/27 03:27:43;;;;;;;15.25;9.63;;;13.50;99.90;;;;;;5067413;28;20114;-77
2022/10/27 03:30:11;;;;;;;12.32;9.88;;;13.50;99.90;;;;;;5045631;28;20064;-77
2022/10/27 03:32:37;;;;;;;13.30;8.68;;;13.50;99.90;;;;;;5064885;28;20119;-77
2022/10/27 03:35:03;;;;;;;11.82;8.00;;;13.50;99.90;;;;;;5047035;28;20064;-77
2022/10/27 03:37:29;;;;;;;12.70;9.30;;;13.50;99.90;;;;;;5061768;28;20036;-78
2022/10/27 03:39:54;;;;;;;12.48;8.38;;;13.40;99.90;;;;;;5047881;28;20086;-77
2022/10/27 03:42:20;;;;;;;10.75;8.10;;;13.30;99.90;;;;;;5066136;28;20045;-77
2022/10/27 03:44:45;;;;;;;10.25;8.35;;;13.40;99.90;;;;;;5066976;28;20040;-77
2022/10/27 03:47:11;;;;;;;11.95;8.73;;;13.20;99.90;;;;;;5046879;28;20056;-77
2022/10/27 03:49:37;;;;;;;13.30;9.55;;;13.30;99.90;;;;;;5066906;28;20492;-77
2022/10/27 03:52:02;;;;;;;14.18;9.45;;;13.20;99.90;;;;;;5069154;28;20052;-77
2022/10/27 03:54:29;;;;;;;12.57;8.25;;;13.20;99.90;;;;;;5049196;28;20045;-78
2022/10/27 03:56:55;;;;;;;9.90;8.57;;;13.20;99.90;;;;;;5065683;28;20543;-77
2022/10/27 03:59:21;;;;;;;12.50;8.30;;;13.20;99.90;;;;;;5063825;28;20028;-78
2022/10/27 04:01:46;;;;;;;16.50;9.55;;;13.20;99.90;;;;;;5046960;28;20072;-77
2022/10/27 04:04:12;;;;;;;11.30;8.80;;;13.20;99.90;;;;;;5063433;28;20528;-77
2022/10/27 04:06:38;;;;;;;13.32;10.00;;;13.20;99.90;;;;;;5048553;28;20043;-77
2022/10/27 04:09:04;;;;;;;14.80;10.48;;;13.20;99.90;;;;;;5049102;28;20044;-77
2022/10/27 04:11:29;;;;;;;15.52;9.65;;;13.20;99.90;;;;;;5047387;28;20522;-78
2022/10/27 04:13:55;;;;;;;12.68;10.07;;;13.20;99.90;;;;;;5066792;28;20404;-78
2022/10/27 04:16:21;;;;;;;12.93;10.65;;;13.20;99.90;;;;;;5047326;28;20067;-77
2022/10/27 04:18:47;;;;;;;15.23;10.07;;;13.20;99.90;;;;;;5049103;28;20040;-77
2022/10/27 04:21:14;;;;;;;13.65;10.75;;;13.20;99.90;;;;;;5067748;28;20123;-77
2022/10/27 04:23:39;;;;;;;17.43;12.50;;;13.30;99.90;;;;;;5066371;28;20036;-78
2022/10/27 04:26:05;;;;;;;15.88;11.73;;;13.30;99.90;;;;;;5046663;28;20055;-77
2022/10/27 04:28:31;;;;;;;13.90;11.18;;;13.30;99.90;;;;;;5062643;28;20052;-77
2022/10/27 04:30:57;;;;;;;14.60;10.95;;;13.30;99.90;;;;;;5063721;28;20129;-77
2022/10/27 04:33:22;;;;;;;16.65;11.38;;;13.30;99.90;;;;;;5066017;28;20182;-77
2022/10/27 04:35:48;;;;;;;15.65;12.23;;;13.40;99.90;;;;;;5046603;28;20067;-78
2022/10/27 04:38:13;;;;;;;17.58;11.88;;;13.40;99.90;;;;;;5068459;28;20385;-78
2022/10/27 04:40:39;;;;;;;15.70;11.75;;;13.40;99.90;;;;;;5066146;28;20048;-77
2022/10/27 04:43:06;;;;;;;14.05;11.45;;;13.40;99.90;;;;;;5064887;28;20452;-76
2022/10/27 04:45:32;;;;;;;14.45;11.38;;;13.40;99.90;;;;;;5063647;28;20392;-77
2022/10/27 04:47:58;;;;;;;17.83;12.40;;;13.40;99.90;;;;;;5067091;28;20115;-77
2022/10/27 04:50:24;;;;;;;14.90;11.27;;;13.40;99.90;;;;;;5065825;28;20206;-76
2022/10/27 04:52:55;;;;;;;16.13;11.57;;;13.40;99.90;;;;;;5064525;28;20040;-78
2022/10/27 04:55:21;;;;;;;17.40;12.40;;;13.30;99.90;;;;;;5063884;28;20071;-78
2022/10/27 04:57:47;;;;;;;12.35;10.80;;;13.40;99.90;;;;;;5047281;28;20044;-78
2022/10/27 05:00:12;;;;;;;16.50;11.65;;;13.30;99.90;;;;;;5066261;28;20115;-78
2022/10/27 05:02:38;;;;;;;16.50;11.95;;;13.30;99.90;;;;;;5064196;28;20036;-79
2022/10/27 05:05:04;;;;;;;13.40;10.50;;;13.30;99.90;;;;;;5033005;28;20052;-78
2022/10/27 05:07:30;;;;;;;13.07;10.18;;;13.30;99.90;;;;;;5047040;28;20046;-78
2022/10/27 05:09:56;;;;;;;15.13;10.43;;;13.20;99.90;;;;;;5045738;28;20036;-77
2022/10/27 05:12:21;;;;;;;13.40;11.00;;;13.20;99.90;;;;;;5064238;28;20329;-77
2022/10/27 05:14:47;;;;;;;15.45;10.98;;;13.20;99.90;;;;;;5062605;28;20044;-78
2022/10/27 05:17:13;;;;;;;15.43;11.73;;;13.20;99.90;;;;;;5064670;28;20055;-77
2022/10/27 05:19:39;;;;;;;18.13;13.02;;;13.20;99.90;;;;;;5044511;28;20048;-77
2022/10/27 05:22:04;;;;;;;17.50;11.93;;;13.20;99.90;;;;;;5065588;28;20475;-77
2022/10/27 05:24:30;;;;;;;15.98;12.52;;;13.30;99.90;;;;;;5065456;28;20037;-78
2022/10/27 05:26:55;;;;;;;17.10;11.52;;;13.30;99.90;;;;;;5045954;28;20420;-78
2022/10/27 05:29:21;;;;;;;14.68;11.27;;;13.30;99.90;;;;;;5042629;28;20048;-77
2022/10/27 05:31:47;;;;;;;15.88;11.75;;;13.20;99.90;;;;;;5062686;28;20136;-80
2022/10/27 05:34:13;;;;;;;16.35;11.50;;;13.30;99.90;;;;;;5070423;28;20400;-79
2022/10/27 05:36:38;;;;;;;14.50;11.10;;;13.30;99.90;;;;;;5058349;28;20055;-76
2022/10/27 05:39:04;;;;;;;19.35;12.15;;;13.30;99.90;;;;;;5043845;28;20078;-77
2022/10/27 05:41:33;;;;;;;19.77;11.73;;;13.40;99.90;;;;;;5064444;28;20071;-77
2022/10/27 05:44:01;;;;;;;16.73;11.98;;;13.40;99.90;;;;;;5068257;28;20488;-77
2022/10/27 05:46:38;;;;;;;13.80;11.98;;;13.40;99.90;;;;;;5065969;28;20040;-77
2022/10/27 05:49:04;;;;;;;17.10;12.52;;;13.50;99.90;;;;;;5037026;28;20048;-77
2022/10/27 05:51:29;;;;;;;15.20;12.30;;;13.50;99.90;;;;;;5069964;28;20044;-78
2022/10/27 05:53:56;;;;;;;18.45;12.18;;;13.40;99.90;;;;;;5048457;28;20040;-77
2022/10/27 05:56:23;;;;;;;16.77;11.60;;;13.50;99.90;;;;;;5055036;28;20457;-76
2022/10/27 05:58:51;;;;;;;15.57;11.60;;;13.50;99.90;;;;;;5047732;28;20112;-76
2022/10/27 06:01:17;;;;;;;18.90;12.38;;;13.50;99.90;;;;;;5049762;28;20051;-76
2022/10/27 06:03:45;;;;;;;24.73;13.70;;;13.50;99.90;;;;;;5068267;28;20063;-76
2022/10/27 06:06:11;;;;;;;18.27;12.27;;;13.50;99.90;;;;;;5040912;28;20048;-76
2022/10/27 06:08:37;;;;;;;18.23;12.45;;;13.50;99.90;;;;;;5065976;28;20045;-77
2022/10/27 06:11:05;;;;;;;19.42;11.57;;;13.50;99.90;;;;;;5043707;28;20238;-76
2022/10/27 06:13:31;;;;;;;18.92;12.48;;;13.50;99.90;;;;;;5063630;28;20459;-76
2022/10/27 06:15:57;;;;;;;20.50;12.02;;;13.50;99.90;;;;;;5066370;28;20032;-76
2022/10/27 06:18:23;;;;;;;15.65;12.80;;;13.50;99.90;;;;;;5067336;28;20062;-76
2022/10/27 06:20:49;;;;;;;18.48;12.93;;;13.50;99.90;;;;;;5068431;28;20049;-76
2022/10/27 06:23:15;;;;;;;19.33;12.25;;;13.50;99.90;;;;;;5068569;28;20105;-76
2022/10/27 06:25:41;;;;;;;17.13;13.30;;;13.40;99.90;;;;;;5065984;28;20063;-76
2022/10/27 06:28:07;;;;;;;18.40;12.73;;;13.40;99.90;;;;;;5064358;28;20094;-75
2022/10/27 06:30:35;;;;;;;17.35;12.25;;;13.40;99.90;;;;;;5065768;28;20055;-75
2022/10/27 06:33:01;;;;;;;21.80;13.35;;;13.40;99.90;;;;;;5066898;28;20048;-76
2022/10/27 06:35:26;;;;;;;20.45;13.65;;;13.40;99.90;;;;;;5048411;28;20047;-77
2022/10/27 06:37:52;;;;;;;17.52;13.10;;;13.40;99.90;;;;;;5064343;28;20117;-76
2022/10/27 06:40:19;;;;;;;17.40;14.25;;;13.40;99.90;;;;;;5050782;28;20045;-76
2022/10/27 06:42:52;;;;;;;22.30;14.10;;;13.40;99.90;;;;;;5045729;28;20052;-75
2022/10/27 06:45:18;;;;;;;21.50;13.52;;;13.40;99.90;;;;;;5067526;28;20537;-76
2022/10/27 06:47:44;;;;;;;18.73;13.75;;;13.40;99.90;;;;;;5066412;28;20040;-76
2022/10/27 06:50:11;;;;;;;21.38;14.73;;;13.40;99.90;;;;;;5049764;28;20462;-75
2022/10/27 06:52:38;;;;;;;19.87;14.47;;;13.40;99.90;;;;;;5067986;28;20036;-77
2022/10/27 06:55:05;;;;;;;18.27;14.50;;;13.40;99.90;;;;;;5069299;28;20286;-76
2022/10/27 06:57:39;;;;;;;19.25;15.25;;;13.40;99.90;;;;;;5062982;28;20125;-74
2022/10/27 07:00:06;;;;;;;20.50;14.13;;;13.40;99.90;;;;;;5064681;28;20563;-74
2022/10/27 07:02:32;;;;;;;20.50;15.02;;;13.40;99.90;;;;;;5047037;28;20052;-76
2022/10/27 07:04:57;;;;;;;18.15;14.75;;;13.40;99.90;;;;;;5066075;28;20801;-77
2022/10/27 07:07:23;;;;;;;18.00;14.00;;;13.40;99.90;;;;;;5063890;28;20509;-78
2022/10/27 07:09:49;;;;;;;18.60;13.60;;;13.40;99.90;;;;;;5067575;28;20108;-84
2022/10/27 07:12:14;;;;;;;20.05;14.40;;;13.40;99.90;;;;;;5049569;28;20045;-82
2022/10/27 07:14:40;;;;;;;20.42;14.98;;;13.40;99.90;;;;;;5066372;28;20040;-81
2022/10/27 07:17:05;;;;;;;18.17;14.43;;;13.50;99.90;;;;;;5041176;28;20681;-85
2022/10/27 07:19:31;;;;;;;20.00;14.00;;;13.50;99.90;;;;;;5052002;28;20056;-85
2022/10/27 07:21:57;;;;;;;21.88;15.18;;;13.50;99.90;;;;;;5036417;28;20043;-85
2022/10/27 07:24:22;;;;;;;19.58;14.63;;;13.60;99.90;;;;;;5053618;28;20041;-84
2022/10/27 07:26:48;;;;;;;22.08;14.45;;;13.60;99.90;;;;;;5028844;28;20033;-83
2022/10/27 07:29:14;;;;;;;17.70;14.60;;;13.60;99.90;;;;;;5047381;28;20079;-85
2022/10/27 07:31:43;;;;;;;17.58;14.05;;;13.70;99.90;;;;;;5029864;28;20049;-84
2022/10/27 07:34:09;;;;;;;17.77;13.60;;;13.60;99.90;;;;;;5046917;28;20045;-84
2022/10/27 07:36:34;;;;;;;19.90;14.90;;;13.80;99.90;;;;;;5043949;28;20115;-85
2022/10/27 07:39:00;;;;;;;18.08;14.73;;;13.80;99.90;;;;;;5032951;28;20529;-83
2022/10/27 07:41:26;;;;;;;23.25;13.60;;;13.80;99.90;;;;;;5050450;28;20108;-81
2022/10/27 07:43:52;;;;;;;17.88;13.82;;;13.80;99.90;;;;;;5049178;28;20049;-84
2022/10/27 07:46:17;;;;;;;19.00;13.38;;;13.80;99.90;;;;;;5035667;28;20045;-83
2022/10/27 07:48:43;;;;;;;20.85;13.43;;;13.90;99.90;;;;;;5050630;28;20040;-85
2022/10/27 07:51:09;;;;;;;21.65;14.32;;;14.00;99.90;;;;;;5049723;28;20186;-81
2022/10/27 07:53:34;;;;;;;18.80;13.18;;;14.00;99.90;;;;;;5049503;28;20063;-84
2022/10/27 07:56:01;;;;;;;16.67;13.25;;;14.10;99.90;;;;;;5050028;28;20499;-85
2022/10/27 07:58:27;;;;;;;19.27;14.00;;;14.10;99.90;;;;;;5048210;28;20037;-82
2022/10/27 08:00:53;;;;;;;17.08;13.48;;;14.20;99.90;;;;;;5044280;28;20052;-84
2022/10/27 08:03:20;;;;;;;18.13;12.93;;;14.20;99.90;;;;;;5047467;28;20514;-85
2022/10/27 08:05:46;;;;;;;17.23;13.40;;;14.20;99.90;;;;;;5042183;28;20128;-82
2022/10/27 08:08:14;;;;;;;18.20;13.25;;;14.30;99.90;;;;;;5038482;28;20123;-84
2022/10/27 08:10:40;;;;;;;;;;;14.30;99.90;;;;;;5024135;28;20048;-82
2022/10/27 08:13:06;;;;;;;19.15;12.63;;;14.30;99.90;;;;;;5049456;28;20341;-83
2022/10/27 08:15:38;;;;;;;16.73;12.80;;;14.30;99.90;;;;;;5043864;28;20084;-83
2022/10/27 08:18:04;;;;;;;15.52;11.70;;;14.30;99.90;;;;;;5061125;28;20641;-83
2022/10/27 08:20:32;;;;;;;17.52;11.93;;;14.30;99.90;;;;;;5066907;28;20079;-84
2022/10/27 08:23:00;;;;;;;17.50;12.25;;;14.30;99.90;;;;;;5064957;28;20067;-83
2022/10/27 08:25:26;;;;;;;18.15;12.13;;;14.40;99.90;;;;;;5067516;28;20044;-84
2022/10/27 08:28:03;;;;;;;17.08;11.68;;;14.40;99.90;;;;;;5105549;27;20388;-82
2022/10/27 08:30:31;;;;;;;16.20;11.65;;;14.40;99.90;;;;;;5083558;28;20482;-82
2022/10/27 08:32:59;;;;;;;13.90;11.32;;;14.50;99.90;;;;;;5078625;28;20036;-83
2022/10/27 08:35:27;;;;;;;15.15;11.45;;;14.50;99.90;;;;;;5089696;28;20046;-83
2022/10/27 08:37:58;;;;;;;16.13;11.63;;;14.50;99.90;;;;;;5085393;28;20047;-83
2022/10/27 08:40:29;;;;;;;16.58;11.05;;;14.60;99.90;;;;;;5086328;28;20458;-83
2022/10/27 08:43:13;;;;;;;15.15;10.50;;;14.60;99.90;;;;;;5084427;28;20056;-83
2022/10/27 08:45:50;;;;;;;16.65;11.10;;;14.60;99.90;;;;;;5082861;28;20032;-83
2022/10/27 08:48:20;;;;;;;15.75;10.65;;;14.70;99.90;;;;;;5077894;28;20056;-83
2022/10/27 08:50:46;;;;;;;17.30;10.98;;;14.70;99.90;;;;;;5090453;28;20067;-81
2022/10/27 08:53:25;;;;;;;16.67;10.23;;;14.70;99.90;;;;;;5097153;28;20040;-84
2022/10/27 08:55:56;;;;;;;16.23;10.52;;;14.70;99.90;;;;;;5079947;28;20048;-86
2022/10/27 08:58:42;;;;;;;16.98;10.07;;;14.70;99.90;;;;;;5086884;28;20042;-84
2022/10/27 09:01:15;;;;;;;14.68;10.05;;;14.70;99.90;;;;;;5099119;28;20052;-80
2022/10/27 09:04:05;;;;;;;13.73;9.40;;;14.70;99.90;;;;;;5081424;28;20085;-83
2022/10/27 09:06:41;;;;;;;15.55;9.82;;;14.70;99.90;;;;;;5098780;28;20032;-82
2022/10/27 09:09:10;;;;;;;13.18;9.55;;;14.80;99.90;;;;;;5092750;28;20051;-83
2022/10/27 09:12:04;;;;;;;13.57;9.70;;;14.70;99.90;;;;;;5092745;28;20036;-83
2022/10/27 09:14:58;;;;;;;14.45;9.73;;;14.80;99.90;;;;;;5081117;28;20122;-82
2022/10/27 09:17:38;;;;;;;13.98;9.73;;;14.90;99.90;;;;;;5084998;28;20050;-81
2022/10/27 09:20:28;;;;;;;15.55;10.00;;;14.90;99.90;;;;;;5099653;28;20083;-83
2022/10/27 09:22:56;;;;;;;14.25;9.65;;;15.00;99.90;;;;;;5093695;28;20409;-83
2022/10/27 09:25:22;;;;;;;14.15;9.55;;;15.10;99.90;;;;;;5079078;28;20047;-82
2022/10/27 09:27:54;;;;;;;14.75;8.88;;;15.20;99.90;;;;;;5065324;28;20062;-82
2022/10/27 09:30:20;;;;;;;12.88;8.40;;;15.30;99.90;;;;;;5084253;28;20044;-81
2022/10/27 09:32:49;;;;;;;14.07;9.18;;;15.30;99.90;;;;;;5064350;28;20615;-81
2022/10/27 09:35:32;;;;;;;14.18;8.75;;;15.40;99.90;;;;;;5085955;28;20059;-79
2022/10/27 09:37:58;;;;;;;12.15;8.38;;;15.50;99.90;;;;;;5091387;28;20093;-84
2022/10/27 09:40:27;;;;;;;11.73;7.13;;;15.60;99.90;;;;;;5069606;28;20056;-84
2022/10/27 09:42:55;;;;;;;9.73;6.95;;;15.60;99.90;;;;;;5072404;28;20487;-81
2022/10/27 09:45:24;;;;;;;11.77;6.82;;;15.70;99.90;;;;;;5080779;28;20048;-84
2022/10/27 09:47:55;;;;;;;11.65;6.88;;;15.80;99.90;;;;;;5073133;28;20120;-83
2022/10/27 09:50:49;;;;;;;12.50;6.22;;;15.90;99.90;;;;;;5079527;28;20447;-78
2022/10/27 09:53:41;;;;;;;10.38;5.88;;;15.90;99.90;;;;;;5063924;28;20051;-76
2022/10/27 09:56:16;;;;;;;9.13;5.50;;;16.00;99.90;;;;;;5051090;28;20048;-82
2022/10/27 09:58:46;;;;;;;9.65;5.22;;;16.00;99.90;;;;;;5070452;28;20131;-82
2022/10/27 10:01:12;;;;;;;8.10;4.65;;;16.10;99.90;;;;;;5077534;28;20067;-80
2022/10/27 10:03:38;;;;;;;10.68;5.07;;;16.20;99.90;;;;;;5050636;28;20672;-79
2022/10/27 10:06:21;;;;;;;8.98;4.63;;;16.30;99.90;;;;;;5068830;28;20047;-80
2022/10/27 10:08:46;;;;;;;9.10;5.03;;;16.40;99.90;;;;;;5051439;28;20036;-78
2022/10/27 10:11:22;;;;;;;9.27;4.78;;;16.40;99.90;;;;;;5065387;28;20495;-83
2022/10/27 10:14:02;;;;;;;13.48;4.93;;;16.50;99.90;;;;;;5064256;28;20053;-79
2022/10/27 10:16:29;;;;;;;8.00;4.78;;;16.60;99.90;;;;;;5056284;28;20491;-80
2022/10/27 10:19:12;;;;;;;10.65;5.00;;;16.60;99.90;;;;;;5062878;28;20044;-81
2022/10/27 10:21:48;;;;;;;11.55;4.82;;;16.60;99.90;;;;;;5059568;28;20123;-77
2022/10/27 10:24:33;;;;;;;8.23;4.35;;;16.70;99.90;;;;;;5087053;28;20043;-84
2022/10/27 10:27:01;;;;;;;8.48;4.70;;;16.70;99.90;;;;;;5075750;28;20060;-78
2022/10/27 10:29:31;;;;;;;9.15;4.60;;;16.70;99.90;;;;;;5087814;28;20514;-75
2022/10/27 10:32:18;;;;;;;11.43;5.05;;;16.80;99.90;;;;;;5068862;28;20048;-80
2022/10/27 10:34:44;;;;;;;7.57;4.88;;;16.90;99.90;;;;;;5055963;28;20044;-77
2022/10/27 10:37:33;;;;;;;7.22;4.05;;;16.90;99.90;;;;;;5082305;28;20047;-77
2022/10/27 10:40:14;;;;;;;8.68;4.10;;;17.00;99.90;;;;;;5077082;28;20047;-76
2022/10/27 10:42:43;;;;;;;9.60;4.53;;;17.10;99.90;;;;;;5060180;28;20079;-80
2022/10/27 10:45:17;;;;;;;7.55;3.50;;;17.10;99.90;;;;;;5077677;28;20697;-78
2022/10/27 10:48:03;;;;;;;9.40;3.22;;;17.20;99.90;;;;;;5086516;28;20395;-78
2022/10/27 10:50:31;;;;;;;5.78;3.10;;;17.30;99.90;;;;;;5073679;28;20032;-76
2022/10/27 10:52:58;;;;;;;9.13;2.70;;;17.40;99.90;;;;;;5075902;28;20036;-78
2022/10/27 10:55:35;;;;;;;6.68;3.20;;;17.50;99.90;;;;;;5081518;28;20079;-79
2022/10/27 10:58:01;;;;;;;7.93;3.30;;;17.60;99.90;;;;;;5075615;28;20086;-78
2022/10/27 11:00:27;;;;;;;9.18;2.72;;;17.70;99.90;;;;;;5087601;28;20044;-79
2022/10/27 11:03:08;;;;;;;10.38;2.78;;;17.70;99.90;;;;;;5058078;28;20044;-79
2022/10/27 11:05:35;;;;;;;7.63;3.10;;;17.70;99.90;;;;;;5064878;28;20922;-78
2022/10/27 11:08:05;;;;;;;6.90;2.80;;;17.80;99.90;;;;;;5088674;28;20105;-78
2022/10/27 11:10:39;;;;;;;6.13;2.63;;;17.80;99.90;;;;;;5065570;28;20040;-78
2022/10/27 11:13:17;;;;;;;5.90;2.70;;;17.80;99.90;;;;;;5083089;28;20056;-78
2022/10/27 11:16:02;;;;;;;6.75;2.55;;;17.80;99.90;;;;;;5065768;28;20552;-79
2022/10/27 11:18:41;;;;;;;4.32;2.42;;;17.80;99.90;;;;;;5065435;28;20079;-78
2022/10/27 11:21:19;;;;;;;6.63;2.30;;;17.90;99.90;;;;;;5087959;28;20679;-78
2022/10/27 11:23:55;;;;;;;6.00;2.20;;;17.90;99.90;;;;;;5067315;28;20404;-79
2022/10/27 11:26:31;;;;;;;6.15;3.38;;;17.90;99.90;;;;;;5058425;28;20053;-78
2022/10/27 11:29:30;;;;;;;6.88;2.47;;;17.90;99.90;;;;;;5066420;28;20048;-77
2022/10/27 11:32:23;;;;;;;6.13;2.45;;;18.00;99.90;;;;;;5081241;28;20048;-82
2022/10/27 11:35:08;;;;;;;6.35;2.72;;;18.00;99.90;;;;;;5077883;28;20398;-83
2022/10/27 11:37:54;;;;;;;7.43;2.70;;;18.10;99.90;;;;;;5079259;28;20063;-79
2022/10/27 11:40:57;;;;;;;5.53;2.35;;;18.10;99.90;;;;;;5073505;28;20067;-79
2022/10/27 11:43:50;;;;;;;6.95;2.78;;;18.10;99.90;;;;;;5085763;28;20569;-83
2022/10/27 11:46:24;;;;;;;9.43;2.83;;;18.10;99.90;;;;;;5078234;28;20054;-79
2022/10/27 11:48:52;;;;;;;8.95;2.60;;;18.10;99.90;;;;;;5060706;28;20055;-79
2022/10/27 11:51:59;;;;;;;9.00;2.45;;;18.10;99.90;;;;;;5082924;28;20044;-82
2022/10/27 11:54:25;;;;;;;5.85;2.40;;;18.20;99.90;;;;;;5073543;28;20040;-78
2022/10/27 11:57:09;;;;;;;6.43;2.77;;;18.20;99.90;;;;;;5074875;28;20036;-79
2022/10/27 11:59:55;;;;;;;8.38;2.30;;;18.20;99.90;;;;;;5062162;28;20043;-79
2022/10/27 12:02:47;;;;;;;7.63;2.57;;;18.20;99.90;;;;;;5069424;28;20786;-77
2022/10/27 12:05:21;;;;;;;6.63;2.60;;;18.20;99.90;;;;;;5087432;28;20761;-76
2022/10/27 12:07:59;;;;;;;5.72;2.35;;;18.20;99.90;;;;;;5070192;28;20495;-76
2022/10/27 12:10:34;;;;;;;7.63;2.30;;;18.20;99.90;;;;;;5085476;28;20077;-76
2022/10/27 12:13:33;;;;;;;5.30;2.28;;;18.20;99.90;;;;;;5085040;28;20044;-77
2022/10/27 12:16:04;;;;;;;7.80;2.30;;;18.20;99.90;;;;;;5012524;28;20056;-76
2022/10/27 12:18:40;;;;;;;7.53;2.65;;;18.20;99.90;;;;;;5086672;28;20079;-77
2022/10/27 12:21:15;;;;;;;4.28;2.33;;;18.20;99.90;;;;;;5066597;28;20480;-76
2022/10/27 12:23:59;;;;;;;7.90;2.70;;;18.20;99.90;;;;;;5086955;28;20120;-76
2022/10/27 12:26:47;;;;;;;5.38;2.45;;;18.30;99.90;;;;;;5057003;28;20079;-76
2022/10/27 12:29:15;;;;;;;6.63;2.53;;;18.30;99.90;;;;;;5058958;28;20491;-76
2022/10/27 12:31:59;;;;;;;6.45;2.20;;;18.30;99.90;;;;;;5086694;28;20487;-76
2022/10/27 12:34:31;;;;;;;6.60;2.15;;;18.40;99.90;;;;;;5060960;28;20400;-77
2022/10/27 12:37:06;;;;;;;6.85;2.45;;;18.40;99.90;;;;;;5068794;28;20130;-76
2022/10/27 12:39:59;;;;;;;6.15;2.33;;;18.50;99.90;;;;;;5055821;28;20400;-76
2022/10/27 12:42:46;;;;;;;7.40;2.30;;;18.50;99.90;;;;;;5068198;28;20127;-76
2022/10/27 12:45:29;;;;;;;7.63;1.80;;;18.60;99.90;;;;;;5087317;28;20664;-76
2022/10/27 12:48:00;;;;;;;6.40;1.98;;;18.70;99.90;;;;;;5081146;28;20480;-77
2022/10/27 12:50:59;;;;;;;5.03;2.03;;;18.80;99.90;;;;;;5061535;28;20044;-77
2022/10/27 12:53:53;;;;;;;6.90;2.00;;;18.90;99.90;;;;;;5076133;28;20632;-76
2022/10/27 12:56:37;;;;;;;6.97;1.67;;;18.90;99.90;;;;;;5086150;28;20036;-76